createdAt,value
2023-02-18T00:01:14.855Z,74.00
2023-02-18T00:03:41.710Z,73.00
2023-02-18T00:06:13.478Z,73.40
2023-02-18T00:08:41.878Z,72.70
2023-02-18T00:11:09.066Z,73.10
2023-02-18T00:14:47.461Z,71.50
2023-02-18T00:17:14.246Z,70.90
2023-02-18T00:19:41.020Z,71.10
2023-02-18T00:22:07.790Z,71.00
2023-02-18T00:24:34.527Z,71.90
2023-02-18T00:27:01.406Z,71.30
2023-02-18T00:29:28.140Z,71.50
2023-02-18T00:34:12.805Z,71.70
2023-02-18T00:36:39.695Z,71.80
2023-02-18T00:39:08.344Z,72.60
2023-02-18T00:41:35.425Z,73.50
2023-02-18T00:44:02.412Z,72.90
2023-02-18T00:46:29.479Z,73.40
2023-02-18T00:51:25.453Z,71.50
2023-02-18T00:53:52.546Z,72.20
2023-02-18T00:56:19.581Z,72.80
2023-02-18T01:00:05.959Z,71.90
2023-02-18T01:02:32.812Z,72.50
2023-02-18T01:04:59.711Z,72.90
2023-02-18T01:07:26.607Z,71.40
2023-02-18T01:12:03.790Z,72.20
2023-02-18T01:14:30.547Z,72.20
2023-02-18T01:16:57.293Z,71.30
2023-02-18T01:19:24.089Z,70.60
2023-02-18T01:21:50.830Z,71.10
2023-02-18T01:25:29.038Z,69.20
2023-02-18T01:27:56.339Z,70.70
2023-02-18T01:30:23.319Z,70.40
2023-02-18T01:32:50.140Z,70.30
2023-02-18T01:35:20.037Z,69.40
2023-02-18T01:37:46.966Z,70.20
2023-02-18T01:40:15.218Z,69.60
2023-02-18T01:42:42.191Z,70.00
2023-02-18T01:48:34.613Z,68.20
2023-02-18T01:51:10.586Z,67.70
2023-02-18T01:53:44.506Z,67.40
2023-02-18T01:56:12.511Z,67.50
2023-02-18T01:58:39.315Z,66.50
2023-02-18T02:01:06.372Z,66.20
2023-02-18T02:03:33.354Z,66.90
2023-02-18T02:06:00.176Z,66.90
2023-02-18T02:08:27.128Z,67.30
2023-02-18T02:11:14.946Z,68.60
2023-02-18T02:14:08.486Z,67.20
2023-02-18T02:16:41.420Z,67.70
2023-02-18T02:19:30.022Z,67.00
2023-02-18T02:22:18.140Z,67.80
2023-02-18T02:24:59.384Z,68.00
2023-02-18T02:27:48.467Z,66.40
2023-02-18T02:30:52.682Z,66.00
2023-02-18T02:33:30.378Z,65.20
2023-02-18T02:36:45.651Z,65.20
2023-02-18T02:41:09.298Z,63.60
2023-02-18T02:43:51.072Z,63.90
2023-02-18T02:46:36.606Z,64.10
2023-02-18T02:49:55.486Z,62.50
2023-02-18T02:52:33.243Z,63.50
2023-02-18T02:55:00.202Z,62.50
2023-02-18T02:57:27.063Z,61.60
2023-02-18T02:59:57.423Z,61.70
2023-02-18T03:03:03.604Z,61.30
2023-02-18T03:06:24.636Z,60.30
2023-02-18T03:09:21.445Z,60.10
2023-02-18T03:11:56.249Z,60.90
2023-02-18T03:14:31.587Z,61.00
2023-02-18T03:17:11.286Z,60.30
2023-02-18T03:19:52.240Z,59.80
2023-02-18T03:22:21.804Z,60.30
2023-02-18T03:26:18.447Z,59.50
2023-02-18T03:28:45.384Z,59.40
2023-02-18T03:31:57.846Z,58.50
2023-02-18T03:34:28.726Z,58.80
2023-02-18T03:36:55.455Z,59.80
2023-02-18T03:39:22.244Z,58.00
2023-02-18T03:41:49.108Z,58.80
2023-02-18T03:45:16.526Z,57.90
2023-02-18T03:48:40.366Z,58.40
2023-02-18T03:51:07.197Z,58.00
2023-02-18T03:54:27.267Z,57.30
2023-02-18T03:56:54.187Z,58.30
2023-02-18T03:59:21.105Z,58.90
2023-02-18T04:01:48.013Z,58.90
2023-02-18T04:04:14.920Z,59.50
2023-02-18T04:06:41.948Z,60.00
2023-02-18T04:09:09.219Z,59.30
2023-02-18T04:11:37.931Z,59.80
2023-02-18T04:14:04.816Z,60.10
2023-02-18T04:16:31.662Z,60.00
2023-02-18T04:18:58.572Z,60.60
2023-02-18T04:21:25.496Z,60.40
2023-02-18T04:23:52.309Z,59.80
2023-02-18T04:26:19.099Z,59.90
2023-02-18T04:28:45.906Z,60.10
2023-02-18T04:31:12.917Z,60.10
2023-02-18T04:33:39.775Z,61.10
2023-02-18T04:36:07.553Z,60.50
2023-02-18T04:38:34.492Z,62.00
2023-02-18T04:41:01.407Z,60.60
2023-02-18T04:43:28.240Z,60.70
2023-02-18T04:49:48.383Z,60.40
2023-02-18T04:52:15.361Z,60.00
2023-02-18T04:54:42.288Z,61.00
2023-02-18T04:57:09.209Z,61.20
2023-02-18T04:59:36.146Z,60.50
2023-02-18T05:02:02.940Z,60.80
2023-02-18T05:04:29.822Z,60.80
2023-02-18T05:06:56.756Z,60.20
2023-02-18T05:09:23.841Z,60.30
2023-02-18T05:11:51.785Z,60.30
2023-02-18T05:14:18.739Z,60.50
2023-02-18T05:16:45.561Z,59.70
2023-02-18T05:19:15.666Z,60.20
2023-02-18T05:21:42.821Z,60.20
2023-02-18T05:24:09.905Z,60.00
2023-02-18T05:26:36.727Z,61.60
2023-02-18T05:29:04.157Z,60.70
2023-02-18T05:31:31.330Z,60.10
2023-02-18T05:33:58.213Z,60.80
2023-02-18T05:36:25.075Z,60.00
2023-02-18T05:38:52.025Z,59.70
2023-02-18T05:41:18.919Z,60.40
2023-02-18T05:44:04.092Z,60.40
2023-02-18T05:46:31.162Z,60.30
2023-02-18T05:48:58.110Z,59.50
2023-02-18T05:51:24.998Z,59.90
2023-02-18T05:53:51.753Z,60.10
2023-02-18T05:56:18.629Z,59.70
2023-02-18T05:58:45.594Z,59.70
2023-02-18T06:01:12.381Z,59.40
2023-02-18T06:03:58.591Z,59.70
2023-02-18T06:06:25.456Z,60.00
2023-02-18T06:08:52.221Z,59.40
2023-02-18T06:11:46.514Z,59.60
2023-02-18T06:14:13.293Z,60.30
2023-02-18T06:17:47.961Z,59.90
2023-02-18T06:20:14.846Z,60.00
2023-02-18T06:22:41.849Z,59.90
2023-02-18T06:25:08.863Z,59.60
2023-02-18T06:27:35.678Z,59.20
2023-02-18T06:30:02.685Z,58.90
2023-02-18T06:32:29.519Z,59.40
2023-02-18T06:34:56.332Z,58.70
2023-02-18T06:37:23.160Z,58.80
2023-02-18T06:39:50.022Z,58.90
2023-02-18T06:42:16.823Z,59.50
2023-02-18T06:44:43.572Z,58.80
2023-02-18T06:47:10.418Z,58.10
2023-02-18T06:49:38.927Z,59.30
2023-02-18T06:52:05.747Z,60.10
2023-02-18T06:57:03.614Z,58.40
2023-02-18T06:59:30.413Z,58.80
2023-02-18T07:01:57.295Z,58.50
2023-02-18T07:05:04.550Z,59.00
2023-02-18T07:09:19.235Z,58.20
2023-02-18T07:11:46.072Z,59.00
2023-02-18T07:14:12.835Z,58.70
2023-02-18T07:16:39.675Z,58.00
2023-02-18T07:19:06.640Z,56.60
2023-02-18T07:21:33.454Z,57.10
2023-02-18T07:24:55.956Z,57.20
2023-02-18T07:30:13.215Z,55.30
2023-02-18T07:32:40.986Z,55.60
2023-02-18T07:35:07.902Z,55.20
2023-02-18T07:37:34.652Z,53.70
2023-02-18T07:40:01.402Z,53.00
2023-02-18T07:42:28.200Z,53.30
2023-02-18T07:44:54.985Z,50.40
2023-02-18T07:47:21.820Z,50.10
2023-02-18T07:54:37.493Z,49.50
2023-02-18T07:59:20.502Z,47.10
2023-02-18T08:03:56.302Z,45.60
2023-02-18T08:06:27.186Z,42.50
2023-02-18T08:08:54.025Z,42.40
2023-02-18T08:14:42.543Z,42.70
2023-02-18T08:17:09.453Z,42.00
2023-02-18T08:19:36.205Z,41.60
2023-02-18T08:22:03.309Z,40.70
2023-02-18T08:24:30.109Z,41.10
2023-02-18T08:27:01.546Z,40.20
2023-02-18T08:29:29.164Z,39.90
2023-02-18T08:33:42.611Z,37.00
2023-02-18T08:38:23.407Z,38.70
2023-02-18T08:40:50.296Z,38.30
2023-02-18T08:43:17.413Z,38.50
2023-02-18T08:45:44.586Z,38.80
2023-02-18T08:50:06.435Z,40.00
2023-02-18T08:52:33.543Z,39.40
2023-02-18T08:55:00.566Z,38.40
2023-02-18T08:59:04.026Z,37.60
2023-02-18T09:01:31.095Z,36.70
2023-02-18T09:03:58.875Z,37.10
2023-02-18T09:06:25.681Z,35.00
2023-02-18T09:08:52.684Z,35.40
2023-02-18T09:11:19.888Z,34.80
2023-02-18T09:15:25.214Z,35.30
2023-02-18T09:19:41.624Z,35.90
2023-02-18T09:24:11.813Z,35.00
2023-02-18T09:28:28.637Z,35.30
2023-02-18T09:30:55.477Z,35.30
2023-02-18T09:33:22.670Z,34.70
2023-02-18T09:35:49.517Z,35.50
2023-02-18T09:38:17.291Z,35.00
2023-02-18T09:40:46.105Z,33.30
2023-02-18T09:43:43.906Z,32.90
2023-02-18T09:46:23.596Z,31.20
2023-02-18T09:48:50.431Z,31.00
2023-02-18T09:51:17.261Z,29.70
2023-02-18T09:53:47.403Z,29.90
2023-02-18T09:56:38.242Z,29.80
2023-02-18T09:59:08.247Z,26.70
2023-02-18T10:01:37.566Z,26.70
2023-02-18T10:04:13.308Z,25.90
2023-02-18T10:08:51.827Z,25.40
2023-02-18T10:11:56.845Z,24.30
2023-02-18T10:14:44.418Z,23.50
2023-02-18T10:23:20.272Z,24.50
2023-02-18T10:26:37.436Z,24.50
2023-02-18T10:29:04.298Z,25.70
2023-02-18T10:31:34.113Z,25.60
2023-02-18T10:38:50.427Z,25.00
2023-02-18T10:41:58.311Z,24.80
2023-02-18T10:44:40.140Z,24.80
2023-02-18T10:47:45.252Z,23.60
2023-02-18T10:50:17.620Z,22.90
2023-02-18T10:56:40.442Z,21.80
2023-02-18T10:59:10.756Z,20.90
2023-02-18T11:01:37.578Z,19.60
2023-02-18T11:04:18.999Z,19.90
2023-02-18T11:06:48.000Z,19.00
2023-02-18T11:09:20.940Z,19.90
2023-02-18T11:11:50.651Z,19.70
2023-02-18T11:15:15.064Z,17.90
2023-02-18T11:20:01.831Z,15.30
2023-02-18T11:22:32.485Z,15.60
2023-02-18T11:25:04.246Z,15.20
2023-02-18T11:27:32.945Z,14.90
2023-02-18T11:30:05.419Z,15.70
2023-02-18T11:32:34.793Z,16.00
2023-02-18T11:35:02.503Z,16.40
2023-02-18T11:37:29.615Z,15.60
2023-02-18T11:39:56.532Z,16.10
2023-02-18T11:42:24.730Z,15.40
2023-02-18T11:44:56.743Z,14.70
2023-02-18T11:47:23.567Z,14.50
2023-02-18T11:50:02.642Z,16.00
2023-02-18T11:52:34.850Z,15.00
2023-02-18T11:55:02.878Z,14.40
2023-02-18T11:57:29.835Z,14.30
2023-02-18T11:59:56.688Z,14.10
2023-02-18T12:02:36.336Z,14.30
2023-02-18T12:05:21.376Z,14.60
2023-02-18T12:07:58.373Z,15.50
2023-02-18T12:10:49.275Z,15.00
2023-02-18T12:13:38.449Z,15.70
2023-02-18T12:16:39.289Z,16.90
2023-02-18T12:19:12.526Z,16.70
2023-02-18T12:21:57.412Z,16.00
2023-02-18T12:26:54.656Z,15.00
2023-02-18T12:29:46.517Z,15.30
2023-02-18T12:32:13.360Z,14.80
2023-02-18T12:34:55.750Z,14.00
2023-02-18T12:37:50.221Z,13.70
2023-02-18T12:40:43.374Z,13.90
2023-02-18T12:43:45.483Z,13.00
2023-02-18T12:46:22.153Z,13.40
2023-02-18T12:48:54.824Z,14.10
2023-02-18T12:51:38.986Z,11.40
2023-02-18T12:55:59.098Z,9.20
2023-02-18T13:01:26.276Z,6.50
2023-02-18T13:04:11.813Z,4.30
2023-02-18T13:06:50.371Z,2.80
2023-02-18T13:09:29.147Z,1.00
2023-02-18T13:12:05.739Z,1.00
2023-02-18T13:17:12.951Z,1.00
2023-02-18T13:19:55.820Z,1.00
2023-02-18T13:22:23.500Z,1.00
2023-02-18T13:24:50.333Z,1.00
2023-02-18T13:30:10.838Z,1.00
2023-02-18T13:33:07.802Z,1.00
2023-02-18T13:38:51.401Z,1.00
2023-02-18T13:41:19.131Z,1.00
2023-02-18T13:43:47.962Z,1.00
2023-02-18T13:46:24.240Z,1.00
2023-02-18T13:48:53.100Z,1.00
2023-02-18T13:51:39.425Z,1.00
2023-02-18T13:54:12.426Z,1.00
2023-02-18T13:56:46.124Z,1.00
2023-02-18T13:59:49.032Z,1.00
2023-02-18T14:02:25.139Z,1.00
2023-02-18T14:04:53.181Z,1.00
2023-02-18T14:10:00.628Z,1.00
2023-02-18T14:12:40.341Z,1.00
2023-02-18T14:15:27.396Z,1.00
2023-02-18T14:18:10.150Z,1.00
2023-02-18T14:20:40.024Z,1.00
2023-02-18T14:24:53.126Z,1.00
2023-02-18T14:27:19.913Z,1.00
2023-02-18T14:29:46.730Z,1.00
2023-02-18T14:32:15.028Z,1.00
2023-02-18T14:34:47.248Z,1.70
2023-02-18T14:40:31.904Z,1.00
2023-02-18T14:44:24.682Z,1.00
2023-02-18T14:47:03.725Z,1.00
2023-02-18T14:51:03.482Z,1.00
2023-02-18T14:53:30.341Z,1.00
2023-02-18T14:56:03.948Z,1.00
2023-02-18T14:58:41.527Z,1.00
2023-02-18T15:01:19.971Z,1.10
2023-02-18T15:03:51.221Z,1.00
2023-02-18T15:06:35.171Z,2.00
2023-02-18T15:11:01.755Z,1.00
2023-02-18T15:13:42.348Z,1.20
2023-02-18T15:16:12.958Z,2.60
2023-02-18T15:18:57.169Z,2.50
2023-02-18T15:21:32.126Z,1.00
2023-02-18T15:26:19.257Z,1.80
2023-02-18T15:29:03.548Z,2.00
2023-02-18T15:31:31.934Z,2.30
2023-02-18T15:33:59.288Z,1.90
2023-02-18T15:40:14.585Z,2.50
2023-02-18T15:42:41.656Z,3.30
2023-02-18T15:47:05.297Z,4.10
2023-02-18T15:51:37.417Z,3.40
2023-02-18T15:54:05.918Z,3.90
2023-02-18T15:56:43.438Z,4.30
2023-02-18T15:59:16.508Z,4.30
2023-02-18T16:01:43.344Z,4.10
2023-02-18T16:04:12.347Z,4.10
2023-02-18T16:06:39.581Z,4.80
2023-02-18T16:09:34.484Z,4.90
2023-02-18T16:12:03.377Z,4.70
2023-02-18T16:14:33.402Z,4.80
2023-02-18T16:17:12.092Z,4.90
2023-02-18T16:20:01.589Z,5.30
2023-02-18T16:22:36.458Z,5.30
2023-02-18T16:25:50.972Z,5.00
2023-02-18T16:28:24.051Z,5.50
2023-02-18T16:30:50.990Z,5.30
2023-02-18T16:33:17.788Z,6.20
2023-02-18T16:35:50.244Z,5.50
2023-02-18T16:38:19.620Z,5.80
2023-02-18T16:40:46.655Z,5.80
2023-02-18T16:43:18.486Z,5.70
2023-02-18T16:45:50.387Z,6.70
2023-02-18T16:48:31.862Z,6.90
2023-02-18T16:51:04.181Z,7.60
2023-02-18T16:53:31.052Z,6.60
2023-02-18T16:55:57.881Z,6.90
2023-02-18T16:59:55.673Z,7.00
2023-02-18T17:04:03.014Z,7.30
2023-02-18T17:07:54.356Z,7.70
2023-02-18T17:10:21.531Z,7.70
2023-02-18T17:12:48.697Z,7.60
2023-02-18T17:15:25.126Z,7.80
2023-02-18T17:17:51.849Z,8.40
2023-02-18T17:20:18.968Z,8.20
2023-02-18T17:22:45.852Z,8.30
2023-02-18T17:25:19.957Z,8.60
2023-02-18T17:27:48.065Z,8.40
2023-02-18T17:30:15.372Z,10.30
2023-02-18T17:32:43.059Z,10.00
2023-02-18T17:37:53.016Z,10.20
2023-02-18T17:40:21.390Z,9.80
2023-02-18T17:42:48.318Z,10.00
